Airfield :
LOGIN :

Register | Disclaimer

   EN    FR    IT 

 










Legend :    VFR   Marginal VFR   IFR   Intensive IFR   Very Intensive IFR
Visi :
Ceiling :
>= 8 km
>= 3000ft
5 to 8 km
1000 to 3000 ft
1500m to 5 km
500 to 1000 ft
800 to 1500m
200 to 500 ft
< 800m
< 200 ft
Symbols :   Thunderstorms  Fog  Heavy snow  Heavy precipitations  Wind > 20 kt
SIGMETs :     Misc.  Thunderstorms  Icing  Turbulence  Mountain Waves  Volcanic Ashes






- Airport Elevation : 32 ft
- IATA code : LKZ


EGUL - RAF Lakenheath

CURRENT METAR :
  • 260056Z AUTO 20007KT 9999 CLR 07/07 A2937 RMK AO2 SLP949 T00730073 $

EXPIRED METARs :
  • 252356Z AUTO 19007KT 9999 CLR 07/07 A2938 RMK AO2 SLP953 60001 T00740074 10097 20073 401350073 57003 $
  • 252256Z AUTO 19006KT 9999 CLR 08/08 A2938 RMK AO2 SLP953 T00790079 $

TAF TAF EGUL
Valid from the 25 at 12:00 until the 26 at 16:00 UTC


251215Z 2512/2616 19012G20KT 9999 SCT050 QNH2938INS
BECMG 2512/2513 21015G25KT 9999 BKN050 QNH2938INS
BECMG 2515/2516 19012KT 9999 SCT030 QNH2937INS
BECMG 2608/2609 21015G25KT 9999 BKN030 QNH2937INS TX14/2514Z TN08/2608Z LAST NO AMDS AFT 2513 NEXT 2604



MET'MAP, your aeronautical weather chart ! - Copyright ORBIFLY December 2007 - Disclaimer

ORBIFLY MET'MAP TEAM :

Programming & Development : Alexandra Zaïnal
Concept & original design : Baudouin d'Aumeries
Assistance for programming : Marc-Olivier Méhu
Technical & hardware support : Manuel Goepfert

Contact : metmap@orbifly.com




SOURCES & CREDITS :

   NOAA